createdAt,value
2018-07-28T07:43:36.372Z,23.6
2018-07-28T07:44:36.205Z,23.56
2018-07-28T07:45:36.580Z,23.6
2018-07-28T07:46:36.363Z,23.61
2018-07-28T07:47:36.480Z,23.62
2018-07-28T07:48:36.242Z,23.64
2018-07-28T07:49:36.404Z,23.66
2018-07-28T07:50:36.179Z,23.66
2018-07-28T07:51:36.284Z,23.67
2018-07-28T07:52:36.649Z,23.68
2018-07-28T07:53:36.358Z,23.66
2018-07-28T07:54:36.140Z,23.66
2018-07-28T07:55:36.601Z,23.67
2018-07-28T07:56:36.393Z,23.66
2018-07-28T07:57:36.464Z,23.64
2018-07-28T07:58:36.340Z,23.64
2018-07-28T07:59:36.577Z,23.64
2018-07-28T08:00:36.547Z,23.63
2018-07-28T08:01:36.408Z,23.62
2018-07-28T08:02:36.386Z,23.61
2018-07-28T08:03:36.485Z,23.6
2018-07-28T08:04:36.300Z,23.6
2018-07-28T08:05:36.452Z,23.6
2018-07-28T08:06:36.207Z,23.59
2018-07-28T08:07:36.560Z,23.59
2018-07-28T08:08:36.346Z,23.59
2018-07-28T08:09:36.391Z,23.59
2018-07-28T08:10:36.508Z,23.57
2018-07-28T08:11:36.529Z,23.55
2018-07-28T08:12:36.493Z,23.53
2018-07-28T08:13:36.444Z,23.52
2018-07-28T08:14:36.163Z,23.5
2018-07-28T08:15:36.108Z,23.51
2018-07-28T08:16:36.385Z,23.49
2018-07-28T08:17:36.527Z,23.47
2018-07-28T08:18:36.537Z,23.47
2018-07-28T08:19:36.389Z,23.46
2018-07-28T08:20:36.248Z,23.45
2018-07-28T08:21:36.504Z,23.45
2018-07-28T08:22:36.417Z,23.45
2018-07-28T08:23:36.693Z,23.42
2018-07-28T08:24:36.160Z,23.42
2018-07-28T08:25:36.301Z,23.42
2018-07-28T08:26:36.324Z,23.4
2018-07-28T08:27:36.152Z,23.4
2018-07-28T08:28:36.531Z,23.39
2018-07-28T08:29:36.286Z,23.39
2018-07-28T08:30:36.329Z,23.39
2018-07-28T08:31:36.209Z,23.39
2018-07-28T08:32:36.299Z,23.37
2018-07-28T08:33:36.146Z,23.37
2018-07-28T08:34:36.195Z,23.37
2018-07-28T08:35:36.377Z,23.36
2018-07-28T08:36:36.147Z,23.35
2018-07-28T08:37:36.300Z,23.36
2018-07-28T08:38:36.154Z,23.34
2018-07-28T08:39:36.207Z,23.34
2018-07-28T08:40:36.342Z,23.33
2018-07-28T08:41:36.198Z,23.34
2018-07-28T08:42:36.116Z,23.33
2018-07-28T08:43:36.177Z,23.32
2018-07-28T08:44:36.341Z,23.32
2018-07-28T08:45:36.124Z,23.32
2018-07-28T08:46:36.322Z,23.31
2018-07-28T08:47:36.094Z,23.31
2018-07-28T08:48:36.357Z,23.31
2018-07-28T08:49:36.431Z,23.31
2018-07-28T08:50:36.299Z,23.31
2018-07-28T08:51:36.141Z,23.3
2018-07-28T08:52:36.521Z,23.3
2018-07-28T08:53:36.288Z,23.29
2018-07-28T08:54:36.273Z,23.3
2018-07-28T08:55:36.419Z,23.3
2018-07-28T08:56:36.365Z,23.31
2018-07-28T08:57:36.381Z,23.33
2018-07-28T08:58:36.244Z,23.33
2018-07-28T08:59:36.400Z,23.36
2018-07-28T09:00:36.152Z,23.36
2018-07-28T09:01:36.447Z,23.38
2018-07-28T09:02:36.393Z,23.37
2018-07-28T09:03:36.649Z,23.4
2018-07-28T09:04:36.782Z,23.39
2018-07-28T09:05:36.657Z,23.4
2018-07-28T09:06:36.312Z,23.38
2018-07-28T09:07:36.704Z,23.4
2018-07-28T09:08:37.415Z,23.4
2018-07-28T09:09:36.125Z,23.41
2018-07-28T09:10:36.464Z,23.4
2018-07-28T09:11:36.330Z,23.41
2018-07-28T09:12:36.345Z,23.41
2018-07-28T09:13:36.525Z,23.42
2018-07-28T09:14:36.371Z,23.41
2018-07-28T09:15:36.183Z,23.42
2018-07-28T09:16:36.146Z,23.44
2018-07-28T09:17:36.220Z,23.43
2018-07-28T09:18:36.160Z,23.44
2018-07-28T09:19:36.442Z,23.44
2018-07-28T09:20:36.462Z,23.44
2018-07-28T09:21:36.263Z,23.45
2018-07-28T09:22:36.295Z,23.46
2018-07-28T09:23:36.434Z,23.45
2018-07-28T09:24:36.545Z,23.45
2018-07-28T09:25:36.387Z,23.45
2018-07-28T09:26:36.309Z,23.45
2018-07-28T09:27:36.227Z,23.46
2018-07-28T09:28:36.554Z,23.47
2018-07-28T09:29:36.307Z,23.45
2018-07-28T09:30:36.296Z,23.38
2018-07-28T09:31:36.243Z,23.44
2018-07-28T09:32:36.293Z,23.45
2018-07-28T09:33:36.692Z,23.46
2018-07-28T09:34:36.559Z,23.47
2018-07-28T09:35:36.353Z,23.48
2018-07-28T09:36:36.189Z,23.48
2018-07-28T09:37:36.328Z,23.47
2018-07-28T09:38:36.258Z,23.46
2018-07-28T09:39:36.326Z,23.45
2018-07-28T09:40:36.708Z,23.46
2018-07-28T09:41:36.400Z,23.45
2018-07-28T09:42:36.229Z,23.45
2018-07-28T09:43:36.297Z,23.45
2018-07-28T09:44:36.229Z,23.47
2018-07-28T09:45:36.298Z,23.43
2018-07-28T09:46:36.299Z,23.45
2018-07-28T09:47:36.089Z,23.47
2018-07-28T09:48:36.364Z,23.48
2018-07-28T09:49:36.422Z,23.47
2018-07-28T09:50:36.230Z,23.48
2018-07-28T09:51:36.324Z,23.49
2018-07-28T09:52:36.482Z,23.5
2018-07-28T09:53:36.239Z,23.5
2018-07-28T09:55:26.409Z,23.52
2018-07-28T09:55:36.469Z,23.51
2018-07-28T09:56:36.213Z,23.53
2018-07-28T09:57:36.162Z,23.54
2018-07-28T09:58:36.311Z,23.55
2018-07-28T09:59:36.260Z,23.56
2018-07-28T10:00:36.211Z,23.57
2018-07-28T10:01:36.325Z,23.58
2018-07-28T10:02:36.153Z,23.59
2018-07-28T10:03:36.379Z,23.57
2018-07-28T10:04:36.462Z,23.58
2018-07-28T10:05:36.258Z,23.59
2018-07-28T10:06:36.149Z,23.59
2018-07-28T10:07:36.386Z,23.59
2018-07-28T10:08:36.343Z,23.59
2018-07-28T10:09:36.239Z,23.6
2018-07-28T10:10:36.489Z,23.6
2018-07-28T10:11:36.259Z,23.61
2018-07-28T10:12:36.233Z,23.6
2018-07-28T10:13:36.301Z,23.59
2018-07-28T10:14:36.179Z,23.61
2018-07-28T10:15:36.065Z,23.62
2018-07-28T10:16:36.167Z,23.63
2018-07-28T10:17:36.243Z,23.64
2018-07-28T10:18:36.262Z,23.64
2018-07-28T10:19:36.594Z,23.66
2018-07-28T10:20:36.392Z,23.66
2018-07-28T10:21:36.133Z,23.68
2018-07-28T10:22:36.398Z,23.68
2018-07-28T10:23:36.293Z,23.69
2018-07-28T10:24:36.146Z,23.71
2018-07-28T10:25:36.271Z,23.72
2018-07-28T10:26:36.151Z,23.71
2018-07-28T10:27:36.340Z,23.72
2018-07-28T10:28:36.325Z,23.72
2018-07-28T10:29:36.229Z,23.72
2018-07-28T10:30:36.117Z,23.72
2018-07-28T10:31:37.204Z,23.73
2018-07-28T10:32:36.263Z,23.74
2018-07-28T10:33:36.075Z,23.74
2018-07-28T10:34:36.331Z,23.73
2018-07-28T10:35:36.265Z,23.75
2018-07-28T10:36:36.279Z,23.76
2018-07-28T10:37:36.591Z,23.76
2018-07-28T10:38:36.291Z,23.75
2018-07-28T10:39:36.327Z,23.76
2018-07-28T10:40:36.308Z,23.78
2018-07-28T10:41:36.191Z,23.77
2018-07-28T10:42:36.086Z,23.77
2018-07-28T10:43:36.321Z,23.79
2018-07-28T10:44:36.363Z,23.77
2018-07-28T10:45:36.153Z,23.79
2018-07-28T10:46:36.622Z,23.78
2018-07-28T10:47:36.288Z,23.8
2018-07-28T10:48:36.195Z,23.8
2018-07-28T10:49:36.439Z,23.81
2018-07-28T10:50:36.114Z,23.79
2018-07-28T10:51:36.181Z,23.81
2018-07-28T10:51:58.783Z,23.95
2018-07-28T10:52:58.745Z,23.98
2018-07-28T10:54:16.564Z,24.02
2018-07-28T10:55:16.935Z,24.05
2018-07-28T10:56:17.045Z,24.08
2018-07-28T10:57:16.693Z,24.1
2018-07-28T10:57:59.809Z,24.1
2018-07-28T10:59:00.203Z,24.1
2018-07-28T10:59:59.927Z,24.11
2018-07-28T11:00:59.848Z,24.12
2018-07-28T11:01:59.754Z,24.15
2018-07-28T11:02:59.946Z,24.16
2018-07-28T11:04:00.056Z,24.16
2018-07-28T11:04:59.722Z,24.15
2018-07-28T11:05:59.947Z,24.16
2018-07-28T11:07:14.714Z,24.17
2018-07-28T11:08:14.711Z,24.16
2018-07-28T11:09:14.939Z,24.15
2018-07-28T11:10:14.689Z,24.14
2018-07-28T11:11:14.682Z,24.14
2018-07-28T11:12:14.706Z,24.14
2018-07-28T11:13:14.735Z,24.12
2018-07-28T11:14:14.767Z,24.12
2018-07-28T11:15:14.637Z,24.12
2018-07-28T11:16:14.820Z,24.14
2018-07-28T11:17:14.864Z,24.16
2018-07-28T11:18:14.746Z,24.17
2018-07-28T11:19:14.737Z,24.18
2018-07-28T11:19:44.827Z,24.19
2018-07-28T11:20:58.645Z,24.25
2018-07-28T11:21:58.599Z,24.13
2018-07-28T11:22:58.838Z,24.09
2018-07-28T11:23:58.659Z,24.08
2018-07-28T11:24:58.874Z,24.04
2018-07-28T11:25:58.952Z,24.02
2018-07-28T11:26:58.751Z,23.99
2018-07-28T11:27:58.713Z,23.95
2018-07-28T11:28:58.777Z,23.93
2018-07-28T11:29:59.041Z,23.91
2018-07-28T11:30:58.864Z,23.89
2018-07-28T11:31:59.112Z,23.87
2018-07-28T11:32:58.783Z,23.86
2018-07-28T11:33:58.864Z,23.84
2018-07-28T11:34:58.837Z,23.82
2018-07-28T11:35:58.818Z,23.81
2018-07-28T11:36:58.665Z,23.79
2018-07-28T11:37:58.874Z,23.78
2018-07-28T11:38:58.862Z,23.78
2018-07-28T11:39:58.892Z,23.75
2018-07-28T11:40:58.829Z,23.76
2018-07-28T11:41:58.738Z,23.75
2018-07-28T11:42:58.708Z,23.77
2018-07-28T11:43:58.963Z,23.77
2018-07-28T11:44:58.691Z,23.77
2018-07-28T11:45:58.713Z,23.77
2018-07-28T11:46:58.900Z,23.77
2018-07-28T11:47:58.676Z,23.77
2018-07-28T11:48:58.914Z,23.77
2018-07-28T11:49:58.704Z,23.77
2018-07-28T11:50:58.752Z,23.77
2018-07-28T11:51:58.656Z,23.78
2018-07-28T11:52:58.772Z,23.76
2018-07-28T11:53:59.123Z,23.76
2018-07-28T11:54:58.728Z,23.76
2018-07-28T11:55:58.833Z,23.76
2018-07-28T11:56:58.712Z,23.76
2018-07-28T11:57:58.724Z,23.76
2018-07-28T11:58:58.975Z,23.75
2018-07-28T11:59:58.704Z,23.75
2018-07-28T12:00:58.853Z,23.76
2018-07-28T12:01:58.932Z,23.75
2018-07-28T12:02:58.821Z,23.75
2018-07-28T12:03:58.646Z,23.74
2018-07-28T12:04:58.920Z,23.74
2018-07-28T12:05:58.738Z,23.74
2018-07-28T12:06:58.885Z,23.73
2018-07-28T12:07:58.687Z,23.73
2018-07-28T12:08:58.711Z,23.73
2018-07-28T12:09:58.765Z,23.72
2018-07-28T12:10:59.046Z,23.72
2018-07-28T12:11:58.753Z,23.72
2018-07-28T12:12:58.895Z,23.71
2018-07-28T12:13:59.092Z,23.72
2018-07-28T12:14:58.785Z,23.71
2018-07-28T12:15:58.634Z,23.7
2018-07-28T12:16:58.666Z,23.7
2018-07-28T12:17:58.930Z,23.69
2018-07-28T12:18:58.765Z,23.69
2018-07-28T12:19:58.787Z,23.68
2018-07-28T12:20:58.859Z,23.68
2018-07-28T12:21:58.617Z,23.67
2018-07-28T12:22:58.862Z,23.67
2018-07-28T12:23:58.948Z,23.66
2018-07-28T12:24:58.870Z,23.65
2018-07-28T12:25:58.872Z,23.66
2018-07-28T12:26:58.907Z,23.65
2018-07-28T12:27:58.725Z,23.65
2018-07-28T12:28:58.939Z,23.64
2018-07-28T12:29:58.779Z,23.64
2018-07-28T12:30:58.617Z,23.63
2018-07-28T12:31:58.698Z,23.63
2018-07-28T12:32:58.815Z,23.64
2018-07-28T12:33:58.669Z,23.63
2018-07-28T12:34:58.939Z,23.63
2018-07-28T12:35:59.032Z,23.63
2018-07-28T12:36:58.884Z,23.62
2018-07-28T12:37:58.706Z,23.62
2018-07-28T12:38:58.870Z,23.62
2018-07-28T12:39:58.616Z,23.61
2018-07-28T12:40:58.933Z,23.61
2018-07-28T12:41:58.886Z,23.61
2018-07-28T12:42:58.854Z,23.61
2018-07-28T12:43:58.810Z,23.6
2018-07-28T12:44:58.888Z,23.61
2018-07-28T12:45:58.872Z,23.61
2018-07-28T12:46:58.933Z,23.6
2018-07-28T12:47:58.690Z,23.6
2018-07-28T12:48:58.638Z,23.6
2018-07-28T12:49:58.820Z,23.6
2018-07-28T12:50:58.709Z,23.59
2018-07-28T12:51:58.873Z,23.59
2018-07-28T12:52:58.781Z,23.6
2018-07-28T12:53:58.722Z,23.59
2018-07-28T12:54:58.773Z,23.6
2018-07-28T12:55:58.845Z,23.6
2018-07-28T12:56:58.733Z,23.59
2018-07-28T12:57:58.628Z,23.58
2018-07-28T12:58:58.791Z,23.58
2018-07-28T12:59:58.784Z,23.58
2018-07-28T13:00:58.759Z,23.58
2018-07-28T13:01:58.896Z,23.57
2018-07-28T13:02:58.827Z,23.58
2018-07-28T13:03:58.862Z,23.57
2018-07-28T13:04:58.748Z,23.57
2018-07-28T13:05:58.684Z,23.57
2018-07-28T13:06:58.624Z,23.57
2018-07-28T13:07:58.701Z,23.57
2018-07-28T13:08:58.950Z,23.57
2018-07-28T13:09:58.915Z,23.57
2018-07-28T13:10:58.628Z,23.56
2018-07-28T13:11:58.798Z,23.56
2018-07-28T13:12:59.108Z,23.56
2018-07-28T13:13:58.860Z,23.56
2018-07-28T13:14:59.135Z,23.56
2018-07-28T13:15:58.609Z,23.55
2018-07-28T13:16:58.700Z,23.55
2018-07-28T13:17:58.770Z,23.55
2018-07-28T13:18:58.791Z,23.56
2018-07-28T13:19:58.704Z,23.56
2018-07-28T13:20:58.841Z,23.55
2018-07-28T13:21:58.721Z,23.55
2018-07-28T13:22:58.739Z,23.55
2018-07-28T13:23:58.725Z,23.55
2018-07-28T13:24:58.638Z,23.55
2018-07-28T13:25:58.753Z,23.54
2018-07-28T13:26:58.744Z,23.54
2018-07-28T13:27:58.848Z,23.54
2018-07-28T13:28:58.725Z,23.54
2018-07-28T13:29:58.791Z,23.55
2018-07-28T13:30:58.937Z,23.54
2018-07-28T13:31:58.833Z,23.54
2018-07-28T13:32:58.828Z,23.54
2018-07-28T13:33:58.610Z,23.54
2018-07-28T13:34:58.762Z,23.53
2018-07-28T13:35:58.654Z,23.54
2018-07-28T13:36:58.707Z,23.52
2018-07-28T13:37:58.839Z,23.51
2018-07-28T13:38:58.669Z,23.51
2018-07-28T13:39:58.800Z,23.51
2018-07-28T13:40:58.846Z,23.51
2018-07-28T13:41:58.761Z,23.51
2018-07-28T13:42:58.635Z,23.51
2018-07-28T13:43:58.743Z,23.51
2018-07-28T13:44:58.630Z,23.5
2018-07-28T13:45:58.710Z,23.5
2018-07-28T13:46:58.703Z,23.5
2018-07-28T13:47:59.088Z,23.5
2018-07-28T13:48:58.903Z,23.49
2018-07-28T13:49:58.601Z,23.5
2018-07-28T13:50:58.818Z,23.49
2018-07-28T13:51:58.651Z,23.49
2018-07-28T13:52:58.832Z,23.5
2018-07-28T13:53:58.997Z,23.49
2018-07-28T13:54:58.639Z,23.49
2018-07-28T13:55:58.833Z,23.48
2018-07-28T13:56:58.821Z,23.48
2018-07-28T13:57:58.700Z,23.48
2018-07-28T13:58:58.784Z,23.48
2018-07-28T13:59:59.094Z,23.48
2018-07-28T14:00:58.774Z,23.47
2018-07-28T14:01:58.871Z,23.47
2018-07-28T14:02:58.694Z,23.47
2018-07-28T14:03:58.866Z,23.48
2018-07-28T14:04:58.648Z,23.45
2018-07-28T14:05:58.870Z,23.46
2018-07-28T14:06:58.926Z,23.5
2018-07-28T14:07:58.956Z,23.51
2018-07-28T14:08:58.767Z,23.53
2018-07-28T14:09:58.819Z,23.54
2018-07-28T14:10:58.822Z,23.55
2018-07-28T14:11:58.894Z,23.56
2018-07-28T14:12:58.957Z,23.57
2018-07-28T14:13:58.771Z,23.59
2018-07-28T14:14:58.728Z,23.6
2018-07-28T14:15:58.831Z,23.6
2018-07-28T14:16:58.764Z,23.61
2018-07-28T14:17:58.870Z,23.62
2018-07-28T14:18:58.702Z,23.62
2018-07-28T14:19:58.861Z,23.63
2018-07-28T14:20:58.916Z,23.63
2018-07-28T14:21:58.867Z,23.64
2018-07-28T14:22:58.859Z,23.63
2018-07-28T14:23:58.673Z,23.63
2018-07-28T14:24:58.910Z,23.62
2018-07-28T14:25:58.706Z,23.61
2018-07-28T14:26:58.644Z,23.6
2018-07-28T14:27:58.737Z,23.59
2018-07-28T14:28:58.875Z,23.58
2018-07-28T14:29:58.894Z,23.57
2018-07-28T14:30:58.788Z,23.57
2018-07-28T14:31:58.720Z,23.58
2018-07-28T14:32:58.790Z,23.56
2018-07-28T14:33:58.872Z,23.57
2018-07-28T14:34:58.680Z,23.56
2018-07-28T14:35:58.790Z,23.55
2018-07-28T14:36:58.599Z,23.55
2018-07-28T14:37:58.715Z,23.56
2018-07-28T14:38:58.744Z,23.55
2018-07-28T14:39:58.764Z,23.55
2018-07-28T14:40:58.732Z,23.54
2018-07-28T14:41:58.574Z,23.54
2018-07-28T14:42:58.698Z,23.53
2018-07-28T14:43:58.676Z,23.52
2018-07-28T14:44:58.893Z,23.52
2018-07-28T14:45:58.688Z,23.52
2018-07-28T14:46:58.689Z,23.52
2018-07-28T14:47:58.708Z,23.51
2018-07-28T14:48:58.729Z,23.51
2018-07-28T14:49:58.752Z,23.51
2018-07-28T14:50:58.599Z,23.51
2018-07-28T14:51:58.781Z,23.51
2018-07-28T14:52:58.870Z,23.5
2018-07-28T14:53:59.960Z,23.5
2018-07-28T14:54:58.682Z,23.49
2018-07-28T14:55:58.584Z,23.49
2018-07-28T14:56:58.820Z,23.49
2018-07-28T14:57:58.762Z,23.48
2018-07-28T14:58:58.739Z,23.49
2018-07-28T14:59:58.629Z,23.49
2018-07-28T15:00:58.632Z,23.48
2018-07-28T15:01:58.974Z,23.48
2018-07-28T15:02:58.979Z,23.48
2018-07-28T15:03:58.802Z,23.48
2018-07-28T15:04:58.813Z,23.47
2018-07-28T15:05:58.826Z,23.47
2018-07-28T15:06:58.864Z,23.47
2018-07-28T15:07:58.642Z,23.47
2018-07-28T15:08:58.680Z,23.46
2018-07-28T15:09:59.016Z,23.46
2018-07-28T15:10:58.736Z,23.48
2018-07-28T15:11:58.889Z,23.47
2018-07-28T15:12:58.734Z,23.47
2018-07-28T15:13:58.773Z,23.48
2018-07-28T15:14:58.848Z,23.48
2018-07-28T15:15:58.614Z,23.48
2018-07-28T15:16:58.889Z,23.48
2018-07-28T15:17:58.565Z,23.48
2018-07-28T15:18:58.676Z,23.47
2018-07-28T15:19:58.659Z,23.46
2018-07-28T15:20:58.836Z,23.49
2018-07-28T15:21:58.848Z,23.5
2018-07-28T15:22:58.678Z,23.52
2018-07-28T15:23:58.762Z,23.5
2018-07-28T15:24:58.798Z,23.48
2018-07-28T15:25:58.665Z,23.49
2018-07-28T15:26:58.546Z,23.48
2018-07-28T15:27:58.751Z,23.48
2018-07-28T15:28:59.804Z,23.48
2018-07-28T15:29:59.121Z,23.48
2018-07-28T15:30:58.874Z,23.49
2018-07-28T15:31:58.717Z,23.5
2018-07-28T15:32:58.842Z,23.53
2018-07-28T15:33:58.723Z,23.54
2018-07-28T15:34:58.813Z,23.54
2018-07-28T15:35:58.882Z,23.55
2018-07-28T15:36:58.868Z,23.57
2018-07-28T15:37:59.032Z,23.57
2018-07-28T15:38:58.941Z,23.58
2018-07-28T15:39:59.119Z,23.58
2018-07-28T15:40:58.640Z,23.58
2018-07-28T15:41:58.712Z,23.59
2018-07-28T15:42:58.724Z,23.61
2018-07-28T15:43:58.776Z,23.63
2018-07-28T15:44:58.562Z,23.63
2018-07-28T15:45:58.655Z,23.63
2018-07-28T15:46:58.902Z,23.63
2018-07-28T15:47:58.690Z,23.63
2018-07-28T15:48:58.957Z,23.64
2018-07-28T15:49:59.126Z,23.66
2018-07-28T15:50:58.632Z,23.67
2018-07-28T15:51:58.566Z,23.67
2018-07-28T15:52:58.662Z,23.68
2018-07-28T15:53:58.626Z,23.68
2018-07-28T15:54:58.614Z,23.69
2018-07-28T15:55:58.763Z,23.7
2018-07-28T15:56:58.659Z,23.7
2018-07-28T15:57:58.707Z,23.71
2018-07-28T15:58:58.577Z,23.71
2018-07-28T15:59:58.636Z,23.71
2018-07-28T16:00:58.596Z,23.71
2018-07-28T16:01:58.799Z,23.72
2018-07-28T16:02:58.804Z,23.72
2018-07-28T16:03:58.954Z,23.72
2018-07-28T16:04:58.584Z,23.74
2018-07-28T16:05:58.820Z,23.74
2018-07-28T16:06:58.585Z,23.75
2018-07-28T16:07:58.691Z,23.75
2018-07-28T16:08:58.900Z,23.75
2018-07-28T16:09:58.518Z,23.75
2018-07-28T16:10:58.783Z,23.75
2018-07-28T16:11:58.754Z,23.75
2018-07-28T16:12:58.799Z,23.76
2018-07-28T16:13:58.937Z,23.76
2018-07-28T16:14:58.735Z,23.76
2018-07-28T16:15:58.708Z,23.76
2018-07-28T16:16:58.889Z,23.77
2018-07-28T16:17:58.747Z,23.78
2018-07-28T16:18:58.539Z,23.76
2018-07-28T16:19:18.462Z,23.88
2018-07-28T16:20:18.697Z,23.94
2018-07-28T16:21:30.169Z,24
2018-07-28T16:22:30.263Z,24.05
2018-07-28T16:23:30.188Z,24.08
2018-07-28T16:24:30.040Z,24.09
2018-07-28T16:25:30.192Z,24.13
2018-07-28T16:26:30.272Z,24.14
2018-07-28T16:27:33.753Z,24.16
2018-07-28T16:28:30.364Z,24.17
2018-07-28T16:28:58.449Z,24.19
2018-07-28T16:29:58.509Z,24.06
2018-07-28T16:30:58.591Z,24.03
2018-07-28T16:31:58.721Z,24.02
2018-07-28T16:32:58.573Z,23.99
2018-07-28T16:33:58.791Z,23.98
2018-07-28T16:34:58.762Z,23.98
2018-07-28T16:35:58.541Z,23.95
2018-07-28T16:36:58.548Z,23.93
2018-07-28T16:37:58.644Z,23.91
2018-07-28T16:38:58.726Z,23.89
2018-07-28T16:39:58.650Z,23.87
2018-07-28T16:40:58.895Z,23.86
2018-07-28T16:41:58.721Z,23.84
2018-07-28T16:42:58.823Z,23.83
2018-07-28T16:43:58.675Z,23.81
2018-07-28T16:44:58.699Z,23.8
2018-07-28T16:45:58.522Z,23.8
2018-07-28T16:46:58.537Z,23.79
2018-07-28T16:47:58.647Z,23.78
2018-07-28T16:48:58.625Z,23.77
2018-07-28T16:49:58.745Z,23.77
2018-07-28T16:50:58.775Z,23.74
2018-07-28T16:51:58.688Z,23.74
2018-07-28T16:52:58.552Z,23.73
2018-07-28T16:53:58.539Z,23.72
2018-07-28T16:54:58.627Z,23.72
2018-07-28T16:55:58.533Z,23.72
2018-07-28T16:56:58.615Z,23.71
2018-07-28T16:57:58.690Z,23.71
2018-07-28T16:58:58.821Z,23.71
2018-07-28T16:59:58.816Z,23.7
2018-07-28T17:00:58.695Z,23.7
2018-07-28T17:01:58.732Z,23.69
2018-07-28T17:02:58.493Z,23.68
2018-07-28T17:03:58.517Z,23.69
2018-07-28T17:04:58.805Z,23.69
2018-07-28T17:05:58.783Z,23.68
2018-07-28T17:06:58.672Z,23.68
2018-07-28T17:07:58.617Z,23.67
2018-07-28T17:08:58.571Z,23.66
2018-07-28T17:09:58.517Z,23.66
2018-07-28T17:10:58.523Z,23.67
2018-07-28T17:11:58.487Z,23.66
2018-07-28T17:12:58.637Z,23.68
2018-07-28T17:13:58.653Z,23.66
2018-07-28T17:14:58.588Z,23.65
2018-07-28T17:15:58.796Z,23.65
2018-07-28T17:16:58.770Z,23.66
2018-07-28T17:17:58.648Z,23.65
2018-07-28T17:18:58.527Z,23.64
2018-07-28T17:19:58.734Z,23.64
2018-07-28T17:20:58.636Z,23.63
2018-07-28T17:21:58.745Z,23.64
2018-07-28T17:22:58.585Z,23.63
2018-07-28T17:23:58.697Z,23.63
2018-07-28T17:24:58.751Z,23.63
2018-07-28T17:25:58.778Z,23.63
2018-07-28T17:26:58.667Z,23.62
2018-07-28T17:27:58.716Z,23.62
2018-07-28T17:28:58.707Z,23.62
2018-07-28T17:29:58.551Z,23.62
2018-07-28T17:30:59.006Z,23.61
2018-07-28T17:31:58.815Z,23.62
2018-07-28T17:32:58.573Z,23.6
2018-07-28T17:33:58.666Z,23.61
2018-07-28T17:34:58.755Z,23.6
2018-07-28T17:35:58.564Z,23.6
2018-07-28T17:36:58.716Z,23.6
2018-07-28T17:37:58.865Z,23.59
2018-07-28T17:38:58.618Z,23.59
2018-07-28T17:39:58.733Z,23.59
2018-07-28T17:40:58.721Z,23.59
2018-07-28T17:41:58.711Z,23.6
2018-07-28T17:42:58.700Z,23.59
2018-07-28T17:43:58.824Z,23.59
2018-07-28T17:44:58.716Z,23.59
2018-07-28T17:45:58.592Z,23.59
2018-07-28T17:46:58.692Z,23.59
2018-07-28T17:47:58.603Z,23.58
2018-07-28T17:48:58.811Z,23.59
2018-07-28T17:49:58.821Z,23.58
2018-07-28T17:50:58.701Z,23.57
2018-07-28T17:51:58.733Z,23.57
2018-07-28T17:52:58.857Z,23.57
2018-07-28T17:53:58.893Z,23.57
2018-07-28T17:54:58.614Z,23.58
2018-07-28T17:55:58.806Z,23.57
2018-07-28T17:56:58.698Z,23.56
2018-07-28T17:57:58.711Z,23.57
2018-07-28T17:58:58.611Z,23.57
2018-07-28T17:59:58.948Z,23.57
2018-07-28T18:00:58.708Z,23.57
2018-07-28T18:01:58.737Z,23.56
2018-07-28T18:02:58.728Z,23.56
2018-07-28T18:03:58.708Z,23.57
2018-07-28T18:04:58.574Z,23.56
2018-07-28T18:05:58.576Z,23.55
2018-07-28T18:06:58.826Z,23.56
2018-07-28T18:07:58.643Z,23.56
2018-07-28T18:08:58.636Z,23.55
2018-07-28T18:09:58.689Z,23.55
2018-07-28T18:10:58.606Z,23.55
2018-07-28T18:11:58.583Z,23.55
2018-07-28T18:12:58.635Z,23.54
2018-07-28T18:13:58.869Z,23.55
2018-07-28T18:14:58.666Z,23.54
2018-07-28T18:15:58.751Z,23.53
2018-07-28T18:16:58.676Z,23.53
2018-07-28T18:17:58.942Z,23.53
2018-07-28T18:18:58.570Z,23.54
2018-07-28T18:19:58.786Z,23.53
2018-07-28T18:20:58.605Z,23.52
2018-07-28T18:21:58.668Z,23.53
2018-07-28T18:22:58.724Z,23.53
2018-07-28T18:23:58.605Z,23.53
2018-07-28T18:24:58.609Z,23.53
2018-07-28T18:25:58.767Z,23.53
2018-07-28T18:26:58.635Z,23.52
2018-07-28T18:27:58.677Z,23.53
2018-07-28T18:28:58.807Z,23.52
2018-07-28T18:29:58.580Z,23.52
2018-07-28T18:30:58.586Z,23.52
2018-07-28T18:31:58.711Z,23.52
2018-07-28T18:32:58.541Z,23.52
2018-07-28T18:33:58.694Z,23.52
2018-07-28T18:34:58.753Z,23.51
2018-07-28T18:35:58.558Z,23.51
2018-07-28T18:36:58.648Z,23.51
2018-07-28T18:37:58.704Z,23.52
2018-07-28T18:38:58.709Z,23.51
2018-07-28T18:39:58.522Z,23.51
2018-07-28T18:40:58.653Z,23.51
2018-07-28T18:41:58.559Z,23.5
2018-07-28T18:42:58.879Z,23.5
2018-07-28T18:43:58.734Z,23.51
2018-07-28T18:44:58.855Z,23.5
2018-07-28T18:45:58.776Z,23.51
2018-07-28T18:46:58.656Z,23.51
2018-07-28T18:47:58.859Z,23.5
2018-07-28T18:48:58.885Z,23.51
2018-07-28T18:49:58.798Z,23.51
2018-07-28T18:50:59.758Z,23.5
2018-07-28T18:51:58.769Z,23.5
2018-07-28T18:52:58.773Z,23.5
2018-07-28T18:53:58.597Z,23.5
2018-07-28T18:54:58.810Z,23.5
2018-07-28T18:55:58.725Z,23.49
2018-07-28T18:56:58.498Z,23.5
2018-07-28T18:57:58.669Z,23.5
2018-07-28T18:58:58.811Z,23.5
2018-07-28T18:59:58.613Z,23.49
2018-07-28T19:00:59.325Z,23.5
2018-07-28T19:01:58.663Z,23.49
2018-07-28T19:02:58.636Z,23.49
2018-07-28T19:03:58.981Z,23.49
2018-07-28T19:04:58.867Z,23.49
2018-07-28T19:05:58.563Z,23.49
2018-07-28T19:06:58.630Z,23.49
2018-07-28T19:07:58.586Z,23.49
2018-07-28T19:08:58.632Z,23.48
2018-07-28T19:09:58.522Z,23.49
2018-07-28T19:10:58.737Z,23.48
2018-07-28T19:11:58.665Z,23.49
2018-07-28T19:12:58.626Z,23.48
2018-07-28T19:13:58.583Z,23.48
2018-07-28T19:14:58.753Z,23.49
2018-07-28T19:15:58.729Z,23.47
2018-07-28T19:16:58.673Z,23.49
2018-07-28T19:17:58.586Z,23.52
2018-07-28T19:18:58.609Z,23.54
2018-07-28T19:19:58.857Z,23.56
2018-07-28T19:20:59.720Z,23.56
2018-07-28T19:21:58.575Z,23.56
2018-07-28T19:22:58.708Z,23.56
2018-07-28T19:23:58.687Z,23.57
2018-07-28T19:24:58.600Z,23.58
2018-07-28T19:25:58.590Z,23.59
2018-07-28T19:26:58.652Z,23.58
2018-07-28T19:27:58.796Z,23.59
2018-07-28T19:28:58.753Z,23.6
2018-07-28T19:29:58.572Z,23.6
2018-07-28T19:30:58.688Z,23.61
2018-07-28T19:31:58.702Z,23.61
2018-07-28T19:32:58.731Z,23.62
2018-07-28T19:33:58.624Z,23.62
2018-07-28T19:34:58.651Z,23.63
2018-07-28T19:35:58.490Z,23.64
2018-07-28T19:36:58.708Z,23.64
2018-07-28T19:37:58.641Z,23.64
2018-07-28T19:38:58.685Z,23.64
2018-07-28T19:39:58.629Z,23.64
2018-07-28T19:40:58.708Z,23.65
2018-07-28T19:41:58.577Z,23.66
2018-07-28T19:42:58.603Z,23.66
2018-07-28T19:43:58.598Z,23.66
2018-07-28T19:44:58.495Z,23.66
2018-07-28T19:45:58.530Z,23.66
2018-07-28T19:46:58.623Z,23.67
2018-07-28T19:47:58.653Z,23.67
2018-07-28T19:48:58.746Z,23.68
2018-07-28T19:49:58.752Z,23.67
2018-07-28T19:50:58.716Z,23.68
2018-07-28T19:51:58.542Z,23.69
2018-07-28T19:52:58.816Z,23.69
2018-07-28T19:53:58.536Z,23.7
2018-07-28T19:54:58.596Z,23.71
2018-07-28T19:55:58.534Z,23.71
2018-07-28T19:56:58.540Z,23.71
2018-07-28T19:57:58.695Z,23.7
2018-07-28T19:58:58.605Z,23.71
2018-07-28T19:59:58.743Z,23.72
2018-07-28T20:00:58.837Z,23.72
2018-07-28T20:01:58.590Z,23.72
2018-07-28T20:02:58.523Z,23.72
2018-07-28T20:03:58.648Z,23.73
2018-07-28T20:04:58.741Z,23.71
2018-07-28T20:05:58.660Z,23.72
2018-07-28T20:06:58.498Z,23.73
2018-07-28T20:07:58.834Z,23.73
2018-07-28T20:08:58.935Z,23.73
2018-07-28T20:09:58.640Z,23.74
2018-07-28T20:10:58.743Z,23.72
2018-07-28T20:11:58.474Z,23.76
2018-07-28T20:12:58.653Z,23.75
2018-07-28T20:13:58.738Z,23.74
2018-07-28T20:14:58.628Z,23.73
2018-07-28T20:15:58.729Z,23.72
2018-07-28T20:16:58.848Z,23.72
2018-07-28T20:17:58.690Z,23.71
2018-07-28T20:18:58.756Z,23.7
2018-07-28T20:19:58.840Z,23.7
2018-07-28T20:20:58.429Z,23.7
2018-07-28T20:21:58.728Z,23.69
2018-07-28T20:22:58.686Z,23.7
2018-07-28T20:23:58.593Z,23.69
2018-07-28T20:24:58.667Z,23.68
2018-07-28T20:25:58.587Z,23.67
2018-07-28T20:26:58.791Z,23.67
2018-07-28T20:27:58.522Z,23.66
2018-07-28T20:28:58.752Z,23.66
2018-07-28T20:29:59.101Z,23.66
2018-07-28T20:30:58.676Z,23.64
2018-07-28T20:31:58.924Z,23.65
2018-07-28T20:32:58.705Z,23.65
2018-07-28T20:33:58.967Z,23.63
2018-07-28T20:34:59.201Z,23.64
2018-07-28T20:35:58.658Z,23.63
2018-07-28T20:36:58.791Z,23.64